Time;durP1;ratioP1;P1;durP2;ratioP2;P2;SDS_P1;SDS_P2;PMS_P1;PMS_P2;Temp;Humidity;BMP_temperature;BMP_pressure;BME280_temperature;BME280_humidity;BME280_pressure;Samples;Min_cycle;Max_cycle;Signal;HPM_P1;HPM_P2
2023/01/09 00:02:51;;;;;;;1.85;1.75;;;;;;;5.51;100.00;98802.19;6160017;28;20058;-86
2023/01/09 00:05:53;;;;;;;2.58;1.70;;;;;;;5.55;100.00;98806.94;6163135;28;20332;-86
2023/01/09 00:08:55;;;;;;;5.28;1.80;;;;;;;5.57;100.00;98802.50;6163631;28;20417;-86
2023/01/09 00:12:01;;;;;;;2.80;1.90;;;;;;;5.66;100.00;98797.50;6164695;28;20222;-86
2023/01/09 00:15:04;;;;;;;2.42;1.60;;;;;;;5.67;100.00;98799.94;6165810;28;20070;-86
2023/01/09 00:18:06;;;;;;;2.28;1.60;;;;;;;5.74;100.00;98795.06;6164553;28;20094;-86
2023/01/09 00:21:09;;;;;;;4.53;1.92;;;;;;;5.73;100.00;98786.56;6164578;28;20039;-86
2023/01/09 00:24:11;;;;;;;3.38;1.77;;;;;;;5.80;100.00;98781.72;6162754;28;20990;-86
2023/01/09 00:27:13;;;;;;;2.50;1.70;;;;;;;5.79;100.00;98775.78;6164207;28;20081;-86
2023/01/09 00:30:14;;;;;;;1.38;1.27;;;;;;;5.85;100.00;98771.88;6164524;28;20294;-86
2023/01/09 00:33:18;;;;;;;4.03;1.50;;;;;;;5.92;100.00;98765.25;6157951;28;20077;-86
2023/01/09 00:36:20;;;;;;;2.00;1.33;;;;;;;6.01;100.00;98755.94;6163144;28;20042;-86
2023/01/09 00:39:22;;;;;;;1.35;1.25;;;;;;;6.08;100.00;98758.78;6164098;28;20051;-86
2023/01/09 00:42:29;;;;;;;1.95;1.40;;;;;;;6.11;100.00;98758.50;6158060;28;20238;-86
2023/01/09 00:45:31;;;;;;;3.90;1.58;;;;;;;6.08;100.00;98748.50;6161620;28;20065;-86
2023/01/09 00:48:36;;;;;;;1.60;1.40;;;;;;;6.09;100.00;98744.97;6163354;28;20386;-85
2023/01/09 00:51:40;;;;;;;1.60;1.50;;;;;;;6.19;100.00;98743.25;6163106;28;20563;-86
2023/01/09 00:54:43;;;;;;;1.65;1.55;;;;;;;6.28;100.00;98739.03;6157117;28;20074;-85
2023/01/09 00:57:44;;;;;;;1.77;1.60;;;;;;;6.31;100.00;98734.44;6151516;28;20105;-86
2023/01/09 01:00:46;;;;;;;3.20;1.58;;;;;;;6.34;100.00;98725.63;6163029;28;20047;-86
2023/01/09 01:03:48;;;;;;;2.28;1.70;;;;;;;6.25;100.00;98728.06;6154594;28;20055;-86
2023/01/09 01:10:24;;;;;;;1.73;1.45;;;;;;;6.30;100.00;98737.13;6155305;28;20401;-86
2023/01/09 01:13:26;;;;;;;1.77;1.55;;;;;;;6.36;100.00;98729.69;6163012;28;20114;-86
2023/01/09 01:16:27;;;;;;;2.20;1.38;;;;;;;6.42;100.00;98734.25;6161776;28;20050;-86
2023/01/09 01:19:30;;;;;;;2.15;1.67;;;;;;;6.44;100.00;98726.41;6162478;28;20042;-86
2023/01/09 01:22:32;;;;;;;1.90;1.52;;;;;;;6.46;100.00;98724.53;6161382;28;20595;-86
2023/01/09 01:25:38;;;;;;;3.45;1.80;;;;;;;6.46;100.00;98724.53;6163015;28;20051;-86
2023/01/09 01:28:41;;;;;;;1.70;1.60;;;;;;;6.49;100.00;98726.81;6161376;28;20046;-86
2023/01/09 01:31:43;;;;;;;2.28;1.70;;;;;;;6.41;100.00;98727.50;6161543;28;20126;-86
2023/01/09 01:34:45;;;;;;;2.97;1.60;;;;;;;6.41;100.00;98735.22;6145537;28;20602;-86
2023/01/09 01:37:48;;;;;;;1.83;1.60;;;;;;;6.44;100.00;98729.00;6161152;28;20126;-86
2023/01/09 01:40:54;;;;;;;1.55;1.30;;;;;;;6.49;100.00;98721.66;6163015;28;20046;-86
2023/01/09 01:43:57;;;;;;;1.65;1.50;;;;;;;6.45;100.00;98717.75;6164015;28;20046;-85
2023/01/09 01:46:58;;;;;;;3.03;1.50;;;;;;;6.40;100.00;98719.94;6160557;28;20047;-85
2023/01/09 01:50:07;;;;;;;2.30;1.25;;;;;;;6.36;100.00;98721.97;6160443;28;20043;-85
2023/01/09 01:53:44;;;;;;;2.30;1.40;;;;;;;6.40;100.00;98723.31;6163447;28;20039;-85
2023/01/09 01:56:50;;;;;;;1.65;1.52;;;;;;;6.34;100.00;98717.94;6173733;28;20042;-86
2023/01/09 01:59:56;;;;;;;3.40;1.77;;;;;;;6.31;100.00;98715.59;6161827;28;20057;-87
2023/01/09 02:02:59;;;;;;;1.63;1.50;;;;;;;6.28;100.00;98711.56;6159661;28;20039;-88
2023/01/09 02:06:03;;;;;;;1.85;1.35;;;;;;;6.27;100.00;98714.28;6160289;28;20050;-89
2023/01/09 02:09:05;;;;;;;1.60;1.50;;;;;;;6.23;100.00;98711.16;6153189;28;20043;-89
2023/01/09 02:12:27;;;;;;;2.72;1.40;;;;;;;6.20;100.00;98714.81;6176845;28;20519;-89
2023/01/09 02:15:46;;;;;;;1.83;1.50;;;;;;;6.19;100.00;98717.53;6158378;28;20093;-89
2023/01/09 02:19:07;;;;;;;5.50;1.48;;;;;;;6.17;100.00;98711.72;6148151;28;20508;-89
2023/01/09 02:22:47;;;;;;;2.05;1.50;;;;;;;6.20;100.00;98719.16;6156825;28;20200;-90
2023/01/09 02:26:23;;;;;;;2.10;1.42;;;;;;;6.24;100.00;98712.81;6156321;28;20036;-89
2023/01/09 02:29:55;;;;;;;2.35;1.48;;;;;;;6.23;100.00;98711.16;6166139;28;20484;-88
2023/01/09 02:33:21;;;;;;;2.90;1.40;;;;;;;6.23;100.00;98711.16;6158353;28;20496;-87
2023/01/09 02:36:33;;;;;;;3.28;1.63;;;;;;;6.31;100.00;98705.34;6162365;28;20054;-86
2023/01/09 02:39:51;;;;;;;2.58;1.67;;;;;;;6.29;100.00;98702.91;6156777;28;20344;-89
2023/01/09 02:42:56;;;;;;;1.20;1.10;;;;;;;6.35;100.00;98706.69;6175509;28;20121;-86
2023/01/09 02:45:58;;;;;;;2.13;1.17;;;;;;;6.39;100.00;98697.75;6154685;28;20047;-87
2023/01/09 02:49:00;;;;;;;1.38;1.20;;;;;;;6.37;100.00;98685.03;6158091;28;20121;-86
2023/01/09 02:52:28;;;;;;;2.63;1.50;;;;;;;6.40;100.00;98692.47;6161104;28;20050;-86
2023/01/09 02:55:54;;;;;;;1.88;1.17;;;;;;;6.40;100.00;98681.38;6157982;28;20983;-86
2023/01/09 02:59:42;;;;;;;2.17;1.50;;;;;;;6.40;100.00;98665.97;6148895;28;20050;-85
2023/01/09 03:02:52;;;;;;;1.13;1.02;;;;;;;6.42;100.00;98672.56;6143061;28;20055;-86
2023/01/09 03:06:03;;;;;;;2.22;1.00;;;;;;;6.41;100.00;98670.13;6160931;28;20073;-85
2023/01/09 03:09:16;;;;;;;1.55;0.80;;;;;;;6.36;100.00;98669.75;6161055;28;20050;-85
2023/01/09 03:12:23;;;;;;;1.42;0.95;;;;;;;6.34;100.00;98667.34;6155466;28;20528;-85
2023/01/09 03:15:29;;;;;;;1.83;1.10;;;;;;;6.40;100.00;98666.75;6157912;28;20043;-85
2023/01/09 03:18:35;;;;;;;1.63;1.10;;;;;;;6.43;100.00;98658.78;6136451;28;20062;-85
2023/01/09 03:21:38;;;;;;;5.10;1.20;;;;;;;6.39;100.00;98659.22;6158996;28;20047;-85
2023/01/09 03:24:40;;;;;;;2.85;1.33;;;;;;;6.35;100.00;98660.44;6146817;28;20078;-85
2023/01/09 03:27:41;;;;;;;2.85;1.10;;;;;;;6.32;100.00;98661.53;6148913;28;20050;-85
2023/01/09 03:30:43;;;;;;;1.40;1.20;;;;;;;6.32;100.00;98660.72;6155085;28;20046;-86
2023/01/09 03:33:46;;;;;;;1.15;1.00;;;;;;;6.38;100.00;98666.09;6150807;28;20043;-85
2023/01/09 03:36:47;;;;;;;2.78;1.35;;;;;;;6.31;100.00;98659.09;6159681;28;20401;-86
2023/01/09 03:39:49;;;;;;;2.55;1.33;;;;;;;6.29;100.00;98664.38;6161601;28;20043;-86
2023/01/09 03:42:51;;;;;;;1.73;1.40;;;;;;;6.28;100.00;98669.66;6159497;28;20043;-87
2023/01/09 03:45:53;;;;;;;1.33;1.00;;;;;;;6.29;100.00;98666.94;6162606;28;20429;-87
2023/01/09 03:48:54;;;;;;;1.80;1.00;;;;;;;6.29;100.00;98666.16;6163735;28;20258;-86
2023/01/09 03:51:56;;;;;;;0.65;0.65;;;;;;;6.30;100.00;98662.63;6152903;28;20209;-86
2023/01/09 03:54:58;;;;;;;1.00;0.82;;;;;;;6.33;100.00;98667.47;6163612;28;20042;-86
2023/01/09 03:57:59;;;;;;;0.55;0.50;;;;;;;6.36;100.00;98662.03;6165306;28;20117;-86
2023/01/09 04:01:04;;;;;;;1.95;0.60;;;;;;;6.36;100.00;98672.31;6159136;28;20039;-86
2023/01/09 04:04:06;;;;;;;0.80;0.70;;;;;;;6.35;100.00;98666.38;6164353;28;20035;-86
2023/01/09 04:07:08;;;;;;;0.80;0.80;;;;;;;6.36;100.00;98668.00;6165088;28;20505;-86
2023/01/09 04:10:10;;;;;;;1.40;1.02;;;;;;;6.35;100.00;98668.94;6164874;28;20236;-86
2023/01/09 04:13:13;;;;;;;0.80;0.55;;;;;;;6.34;100.00;98664.78;6166671;28;20050;-86
2023/01/09 04:16:14;;;;;;;1.65;0.50;;;;;;;6.32;100.00;98663.28;6166105;28;20124;-86
2023/01/09 04:19:16;;;;;;;0.47;0.40;;;;;;;6.40;100.00;98661.63;6166041;28;20560;-86
2023/01/09 04:22:18;;;;;;;0.60;0.60;;;;;;;6.35;100.00;98660.44;6167325;28;20058;-86
2023/01/09 04:25:21;;;;;;;0.75;0.70;;;;;;;6.31;100.00;98659.09;6152787;28;20047;-86
2023/01/09 04:28:23;;;;;;;1.17;0.40;;;;;;;6.27;100.00;98665.47;6148387;28;20493;-87
2023/01/09 04:31:25;;;;;;;0.95;0.70;;;;;;;6.27;100.00;98663.72;6165525;28;20039;-87
2023/01/09 04:34:27;;;;;;;1.63;0.70;;;;;;;6.33;100.00;98668.28;6154259;28;20091;-87
2023/01/09 04:37:28;;;;;;;0.60;0.57;;;;;;;6.27;100.00;98652.63;6165721;28;20390;-87
2023/01/09 04:40:30;;;;;;;1.13;0.77;;;;;;;6.24;100.00;98653.72;6165825;28;20065;-86
2023/01/09 04:43:32;;;;;;;0.82;0.30;;;;;;;6.27;100.00;98658.56;6166043;28;20047;-86
2023/01/09 04:46:33;;;;;;;1.10;0.38;;;;;;;6.22;100.00;98655.59;6165060;28;20053;-87
2023/01/09 04:49:35;;;;;;;0.30;0.30;;;;;;;6.09;100.00;98657.66;6164366;28;20039;-86
2023/01/09 04:52:37;;;;;;;1.30;0.50;;;;;;;6.08;100.00;98661.97;6164975;28;20046;-87
2023/01/09 04:55:40;;;;;;;0.30;0.30;;;;;;;6.06;100.00;98652.78;6163967;28;20044;-86
2023/01/09 04:58:41;;;;;;;0.30;0.30;;;;;;;6.09;100.00;98666.19;6164770;28;20945;-86
2023/01/09 05:01:43;;;;;;;1.20;0.40;;;;;;;6.11;100.00;98666.88;6154118;28;20474;-86
2023/01/09 05:04:45;;;;;;;0.30;0.30;;;;;;;6.19;100.00;98682.38;6166520;28;20378;-86
2023/01/09 05:07:47;;;;;;;1.40;0.40;;;;;;;6.13;100.00;98674.41;6158831;28;20047;-86
2023/01/09 05:10:48;;;;;;;0.55;0.50;;;;;;;6.12;100.00;98677.94;6158786;28;20129;-86
2023/01/09 05:13:51;;;;;;;0.50;0.40;;;;;;;6.07;100.00;98675.78;6163359;28;20097;-87
2023/01/09 05:16:53;;;;;;;0.60;0.60;;;;;;;6.14;100.00;98676.06;6158169;28;20038;-87
2023/01/09 05:19:55;;;;;;;0.60;0.60;;;;;;;6.07;100.00;98672.41;6157199;28;20046;-87
2023/01/09 05:22:56;;;;;;;0.68;0.60;;;;;;;6.07;100.00;98677.56;6157329;28;20054;-87
2023/01/09 05:25:58;;;;;;;0.70;0.70;;;;;;;6.15;100.00;98690.50;6157246;28;20504;-87
2023/01/09 05:29:00;;;;;;;0.70;0.70;;;;;;;6.12;100.00;98688.22;6159367;28;20428;-87
2023/01/09 05:32:02;;;;;;;2.08;1.20;;;;;;;6.11;100.00;98689.16;6157019;28;20039;-88
2023/01/09 05:35:04;;;;;;;1.27;1.10;;;;;;;5.97;100.00;98675.00;6155091;28;20554;-88
2023/01/09 05:38:06;;;;;;;1.55;1.33;;;;;;;5.83;100.00;98694.16;6152787;28;20047;-88
2023/01/09 05:41:09;;;;;;;2.88;1.15;;;;;;;5.80;100.00;98705.50;6153700;28;20050;-89
2023/01/09 05:44:11;;;;;;;1.23;1.15;;;;;;;5.89;100.00;98709.03;6151975;28;20046;-89
2023/01/09 05:47:12;;;;;;;1.70;1.40;;;;;;;5.88;100.00;98716.88;6156231;28;20070;-91
2023/01/09 05:50:15;;;;;;;1.10;0.98;;;;;;;5.83;100.00;98712.94;6163908;28;20058;-91
2023/01/09 05:53:17;;;;;;;3.17;1.30;;;;;;;5.96;100.00;98714.44;6161553;28;20093;-92
2023/01/09 05:56:19;;;;;;;2.63;1.77;;;;;;;6.04;100.00;98709.47;6163873;28;20123;-92
2023/01/09 05:59:21;;;;;;;2.75;2.10;;;;;;;5.99;100.00;98701.34;6162024;28;20098;-92
2023/01/09 06:02:23;;;;;;;3.50;2.30;;;;;;;5.98;100.00;98707.41;6159797;28;20046;-92
2023/01/09 06:05:26;;;;;;;6.82;2.75;;;;;;;6.07;100.00;98696.34;6163544;28;20050;-92
2023/01/09 06:08:28;;;;;;;4.72;2.47;;;;;;;6.04;100.00;98712.03;6155098;28;20050;-92
2023/01/09 06:11:30;;;;;;;3.20;2.42;;;;;;;5.94;100.00;98703.53;6161574;28;20355;-91
2023/01/09 06:14:32;;;;;;;3.22;2.47;;;;;;;5.81;100.00;98699.44;6163252;28;20214;-91
2023/01/09 06:17:34;;;;;;;4.40;2.92;;;;;;;5.75;100.00;98707.69;6164972;28;20042;-91
2023/01/09 06:20:36;;;;;;;3.55;2.70;;;;;;;5.65;100.00;98717.13;6163783;28;20420;-90
2023/01/09 06:23:38;;;;;;;4.63;3.40;;;;;;;5.64;100.00;98725.78;6160298;28;20532;-89
2023/01/09 06:26:40;;;;;;;5.07;3.72;;;;;;;5.52;100.00;98730.22;6162027;28;20125;-89
2023/01/09 06:29:42;;;;;;;4.18;3.33;;;;;;;5.35;100.00;98744.50;6164035;28;20045;-88
2023/01/09 06:32:48;;;;;;;4.05;3.13;;;;;;;5.34;100.00;98750.59;6151074;28;20058;-88
2023/01/09 06:35:49;;;;;;;4.97;3.83;;;;;;;5.37;100.00;98752.09;6153316;28;20054;-89
2023/01/09 06:38:51;;;;;;;4.85;3.55;;;;;;;5.39;100.00;98751.00;6165644;28;20503;-88
2023/01/09 06:41:53;;;;;;;7.10;3.35;;;;;;;5.39;100.00;98751.00;6143509;28;20059;-88
2023/01/09 06:44:55;;;;;;;6.32;3.80;;;;;;;5.39;100.00;98742.47;6150089;28;20485;-88
2023/01/09 06:47:57;;;;;;;4.85;3.70;;;;;;;5.35;100.00;98731.69;6163771;28;20050;-88
2023/01/09 06:50:59;;;;;;;5.80;3.97;;;;;;;5.37;100.00;98729.81;6164213;28;20050;-88
2023/01/09 06:54:01;;;;;;;4.82;3.13;;;;;;;5.27;100.00;98738.44;6162159;28;20055;-87
2023/01/09 06:57:02;;;;;;;7.28;3.92;;;;;;;5.18;100.00;98750.28;6158437;28;20039;-87
2023/01/09 07:00:05;;;;;;;16.38;4.40;;;;;;;5.04;100.00;98760.88;6163400;28;20386;-87
2023/01/09 07:03:07;;;;;;;5.35;3.80;;;;;;;4.90;100.00;98764.63;6162358;28;20173;-87
2023/01/09 07:06:09;;;;;;;6.07;3.55;;;;;;;4.87;100.00;98780.25;6162411;28;20047;-87
2023/01/09 07:09:12;;;;;;;6.25;3.35;;;;;;;4.93;100.00;98787.44;6162869;28;20421;-87
2023/01/09 07:12:14;;;;;;;4.93;3.53;;;;;;;4.83;100.00;98792.50;6176263;28;20604;-86
2023/01/09 07:15:16;;;;;;;7.22;3.78;;;;;;;4.75;100.00;98797.47;6164133;28;20050;-87
2023/01/09 07:18:18;;;;;;;9.63;3.75;;;;;;;4.58;100.00;98814.22;6162343;28;20405;-87
2023/01/09 07:21:20;;;;;;;5.25;3.83;;;;;;;4.65;100.00;98806.84;6163905;28;20291;-87
2023/01/09 07:24:23;;;;;;;7.22;4.32;;;;;;;4.50;100.00;98821.72;6164229;28;20117;-87
2023/01/09 07:27:24;;;;;;;5.70;3.80;;;;;;;4.44;100.00;98835.03;6164072;28;20061;-87
2023/01/09 07:30:26;;;;;;;8.95;4.63;;;;;;;4.40;100.00;98842.16;6161438;28;20416;-87
2023/01/09 07:33:31;;;;;;;7.85;4.57;;;;;;;4.38;100.00;98853.47;6164097;28;20508;-87
2023/01/09 07:36:36;;;;;;;10.98;5.25;;;;;;;4.40;100.00;98857.53;6146001;28;20114;-87
2023/01/09 07:39:40;;;;;;;8.90;5.25;;;;;;;4.35;100.00;98854.53;6142988;28;20043;-87
2023/01/09 07:42:42;;;;;;;10.23;5.53;;;;;;;4.28;100.00;98856.75;6153930;28;20043;-87
2023/01/09 07:45:45;;;;;;;8.25;5.53;;;;;;;4.15;100.00;98860.41;6160949;28;20378;-87
2023/01/09 07:48:47;;;;;;;11.10;6.03;;;;;;;4.14;100.00;98874.94;6155275;28;20053;-87
2023/01/09 07:51:49;;;;;;;9.95;5.25;;;;;;;4.27;100.00;98882.47;6163376;28;20126;-86
2023/01/09 07:54:50;;;;;;;9.50;6.20;;;;;;;4.30;100.00;98888.19;6153895;28;20035;-87
2023/01/09 07:57:52;;;;;;;9.95;5.75;;;;;;;4.35;100.00;98892.09;6150648;28;20097;-86
2023/01/09 08:00:54;;;;;;;9.25;5.65;;;;;;;4.32;100.00;98893.16;6150437;28;20034;-87
2023/01/09 08:03:56;;;;;;;9.52;5.82;;;;;;;4.26;100.00;98888.53;6148389;28;20035;-86
2023/01/09 08:06:58;;;;;;;10.88;6.20;;;;;;;4.30;100.00;98895.88;6161937;28;20046;-86
2023/01/09 08:10:00;;;;;;;9.48;5.10;;;;;;;4.39;100.00;98898.63;6157248;28;20043;-86
2023/01/09 08:13:01;;;;;;;12.20;5.93;;;;;;;4.46;100.00;98898.00;6174912;28;20109;-85
2023/01/09 08:16:03;;;;;;;9.73;5.57;;;;;;;4.63;100.00;98906.09;6165945;28;20062;-85
2023/01/09 08:19:05;;;;;;;9.68;5.18;;;;;;;4.68;100.00;98911.66;6165790;28;20046;-85
2023/01/09 08:22:07;;;;;;;11.52;5.00;;;;;;;4.67;100.00;98922.84;6164172;28;20488;-85
2023/01/09 08:25:10;;;;;;;9.80;5.72;;;;;;;4.64;100.00;98923.09;6163376;28;20382;-85
2023/01/09 08:28:16;;;;;;;7.43;5.03;;;;;;;4.54;100.00;98923.81;6166038;28;20051;-85
2023/01/09 08:31:19;;;;;;;6.60;4.47;;;;;;;4.57;100.00;98919.41;6154483;28;20174;-85
2023/01/09 08:34:24;;;;;;;8.65;4.85;;;;;;;4.52;100.00;98925.72;6165449;28;20092;-85
2023/01/09 08:37:26;;;;;;;11.75;5.53;;;;;;;4.53;100.00;98926.53;6167004;28;20066;-85
2023/01/09 08:40:28;;;;;;;9.57;4.38;;;;;;;4.54;100.00;98923.00;6163387;28;20042;-85
2023/01/09 08:47:05;;;;;;;9.93;4.40;;;;;;;4.43;100.00;98928.19;6165867;28;20512;-85
2023/01/09 08:50:07;;;;;;;9.20;4.72;;;;;;;4.43;100.00;98930.75;6164517;28;20047;-85
2023/01/09 08:53:10;;;;;;;8.93;4.40;;;;;;;4.43;100.00;98933.31;6165140;28;20070;-85
2023/01/09 08:56:12;;;;;;;6.38;3.35;;;;;;;4.56;100.00;98936.53;6164327;28;20049;-85
2023/01/09 08:59:14;;;;;;;5.43;2.90;;;;;;;4.80;100.00;98943.19;6158257;28;20058;-85
2023/01/09 09:02:16;;;;;;;4.88;3.00;;;;;;;4.83;100.00;98941.19;6164852;28;20054;-85
2023/01/09 09:05:19;;;;;;;8.05;2.97;;;;;;;4.88;100.00;98938.25;6163993;28;20492;-85
2023/01/09 09:08:21;;;;;;;7.00;3.05;;;;;;;4.85;100.00;98946.19;6166275;28;20060;-85
2023/01/09 09:11:22;;;;;;;5.90;2.40;;;;;;;4.92;100.00;98927.63;6164354;28;20038;-85
2023/01/09 09:17:48;;;;;;;5.80;2.60;;;;;;;5.31;100.00;98924.47;6165409;28;20504;-85
2023/01/09 09:20:49;;;;;;;4.43;2.70;;;;;;;5.54;100.00;98925.13;6165151;28;20039;-85
2023/01/09 09:23:51;;;;;;;2.08;1.60;;;;;;;5.74;100.00;98923.44;6172617;28;20050;-85
2023/01/09 09:26:53;;;;;;;7.70;2.30;;;;;;;5.89;100.00;98923.88;6160984;28;20047;-85
2023/01/09 09:29:55;;;;;;;3.78;2.40;;;;;;;5.94;100.00;98922.59;6162307;28;20130;-85
2023/01/09 09:32:57;;;;;;;4.10;2.03;;;;;;;5.89;100.00;98921.31;6162748;28;20046;-84
2023/01/09 09:35:58;;;;;;;6.05;3.33;;;;;;;6.05;100.00;98926.81;6155892;28;20038;-84
2023/01/09 09:39:01;;;;;;;6.03;1.95;;;;;;;6.15;100.00;98930.22;6154453;28;20816;-85
2023/01/09 09:46:03;;;;;;;3.63;1.48;;;;;;;6.31;100.00;98932.28;6165312;28;20039;-85
2023/01/09 09:49:18;;;;;;;1.92;1.20;;;;;;;6.53;100.00;98920.09;6157997;28;20454;-84
2023/01/09 09:52:36;;;;;;;4.38;1.40;;;;;;;6.67;100.00;98917.94;6164307;28;20126;-85
2023/01/09 09:55:40;;;;;;;6.90;1.77;;;;;;;6.90;100.00;98907.38;6159359;28;20043;-84
2023/01/09 09:58:47;;;;;;;4.00;1.45;;;;;;;6.94;100.00;98887.34;6158562;28;20045;-85
2023/01/09 10:02:09;;;;;;;4.65;1.50;;;;;;;6.82;100.00;98902.09;6161573;28;20065;-85
2023/01/09 10:05:24;;;;;;;2.60;1.38;;;;;;;6.69;100.00;98923.78;6162694;28;20047;-85
2023/01/09 10:08:33;;;;;;;4.05;1.55;;;;;;;6.54;100.00;98925.13;6162995;28;20298;-85
2023/01/09 10:12:00;;;;;;;3.40;1.30;;;;;;;6.50;100.00;98928.91;6164453;28;20077;-85
2023/01/09 10:15:14;;;;;;;2.08;1.15;;;;;;;6.55;100.00;98929.31;6164347;28;20070;-85
2023/01/09 10:18:42;;;;;;;3.40;1.20;;;;;;;6.63;100.00;98928.63;6165232;28;20121;-85
2023/01/09 10:22:22;;;;;;;1.63;1.30;;;;;;;6.78;100.00;98921.31;6161053;28;20051;-85
2023/01/09 10:25:34;;;;;;;;;;;;;;;6.80;100.00;98911.72;6157958;28;20145;-85
2023/01/09 10:29:03;;;;;;;5.50;1.42;;;;;;;6.76;100.00;98900.06;6161589;28;20020;-85
2023/01/09 10:32:45;;;;;;;5.07;1.30;;;;;;;6.61;100.00;98887.66;6156568;28;20051;-84
2023/01/09 10:36:34;;;;;;;2.03;1.20;;;;;;;6.44;100.00;98883.19;6163003;28;20519;-85
2023/01/09 10:39:51;;;;;;;4.47;1.48;;;;;;;6.31;100.00;98887.75;6175432;28;20046;-85
2023/01/09 10:42:59;;;;;;;1.83;1.20;;;;;;;6.19;100.00;98880.19;6183263;28;20539;-85
2023/01/09 10:46:08;;;;;;;8.70;1.75;;;;;;;6.11;100.00;98889.50;6167839;28;20057;-84
2023/01/09 10:49:14;;;;;;;3.50;1.40;;;;;;;6.09;100.00;98894.78;6183145;28;20046;-85
2023/01/09 10:52:19;;;;;;;2.25;1.00;;;;;;;6.05;100.00;98883.16;6176805;28;20493;-85
2023/01/09 10:55:39;;;;;;;5.60;1.60;;;;;;;6.01;100.00;98895.47;6184362;28;20046;-85
2023/01/09 10:58:41;;;;;;;2.33;1.23;;;;;;;6.07;100.00;98894.09;6182929;28;20407;-85
2023/01/09 11:01:43;;;;;;;2.25;1.15;;;;;;;6.33;100.00;98888.44;6179531;28;20074;-85
2023/01/09 11:04:45;;;;;;;4.70;1.10;;;;;;;6.53;100.00;98892.63;6182858;28;20038;-85
2023/01/09 11:07:52;;;;;;;3.13;1.30;;;;;;;6.71;100.00;98879.09;6182436;28;20494;-85
2023/01/09 11:10:58;;;;;;;4.90;1.23;;;;;;;6.74;100.00;98871.94;6162323;28;20059;-85
2023/01/09 11:14:05;;;;;;;5.22;1.00;;;;;;;6.81;100.00;98867.88;6162122;28;20043;-85
2023/01/09 11:17:18;;;;;;;1.30;0.90;;;;;;;6.87;100.00;98869.88;6155679;28;20044;-85
2023/01/09 11:20:28;;;;;;;2.53;0.95;;;;;;;6.92;100.00;98881.53;6150118;28;20065;-85
2023/01/09 11:23:32;;;;;;;1.77;1.05;;;;;;;6.92;100.00;98876.38;6160975;28;20465;-86
2023/01/09 11:26:34;;;;;;;1.85;1.08;;;;;;;6.89;100.00;98882.59;6161712;28;20472;-86
2023/01/09 11:29:35;;;;;;;2.28;1.08;;;;;;;6.89;100.00;98869.75;6156597;28;20039;-85
2023/01/09 11:32:37;;;;;;;2.92;0.95;;;;;;;6.94;100.00;98867.56;6161814;28;20057;-86
2023/01/09 11:35:57;;;;;;;1.88;1.02;;;;;;;6.95;100.00;98861.47;6156776;28;20039;-86
2023/01/09 11:39:01;;;;;;;3.20;1.08;;;;;;;7.01;100.00;98854.97;6159428;28;20221;-86
2023/01/09 11:42:05;;;;;;;2.88;1.10;;;;;;;7.09;100.00;98855.06;6151768;28;20332;-86
2023/01/09 11:45:30;;;;;;;3.47;1.10;;;;;;;7.22;100.00;98854.75;6166324;28;20639;-86
2023/01/09 11:48:55;;;;;;;0.93;0.80;;;;;;;7.32;100.00;98850.38;6156343;28;20043;-86
2023/01/09 11:52:04;;;;;;;1.88;0.85;;;;;;;7.38;100.00;98849.81;6162909;28;20039;-85
2023/01/09 11:55:11;;;;;;;3.42;1.02;;;;;;;7.48;100.00;98860.88;6159781;28;20043;-86
2023/01/09 11:58:15;;;;;;;2.75;1.02;;;;;;;7.59;100.00;98856.50;6163595;28;20454;-86
2023/01/09 12:01:26;;;;;;;4.60;1.15;;;;;;;7.79;100.00;98858.00;6165685;28;20468;-86
2023/01/09 12:04:40;;;;;;;3.00;0.95;;;;;;;7.94;100.00;98851.41;6166320;28;20051;-86
2023/01/09 12:08:10;;;;;;;2.20;0.90;;;;;;;8.04;100.00;98860.84;6166434;28;20394;-86
2023/01/09 12:11:25;;;;;;;2.83;0.93;;;;;;;8.09;100.00;98858.63;6166576;28;20497;-86
2023/01/09 12:14:45;;;;;;;2.72;0.85;;;;;;;8.13;100.00;98845.31;6164786;28;20430;-85
2023/01/09 12:18:22;;;;;;;1.90;0.88;;;;;;;8.10;100.00;98844.78;6156589;28;20524;-85
2023/01/09 12:21:43;;;;;;;3.30;0.70;;;;;;;8.12;100.00;98832.56;6161862;28;20054;-86
2023/01/09 12:25:11;;;;;;;1.65;0.68;;;;;;;8.10;100.00;98843.03;6161949;28;20485;-85
2023/01/09 12:28:36;;;;;;;1.08;0.68;;;;;;;8.04;100.00;98840.22;6154647;28;20394;-85
2023/01/09 12:32:09;;;;;;;1.90;0.90;;;;;;;8.03;100.00;98842.00;6166473;28;20346;-85
2023/01/09 12:35:29;;;;;;;1.13;0.90;;;;;;;8.13;100.00;98845.31;6165105;28;20593;-85
2023/01/09 12:38:45;;;;;;;1.58;0.60;;;;;;;8.27;100.00;98836.25;6166823;28;20142;-86
2023/01/09 12:41:53;;;;;;;1.55;0.63;;;;;;;8.35;100.00;98841.50;6166040;28;20053;-87
2023/01/09 12:45:22;;;;;;;0.90;0.70;;;;;;;8.41;100.00;98843.50;6161431;28;20043;-86
2023/01/09 12:49:03;;;;;;;1.85;0.60;;;;;;;8.39;100.00;98842.81;6162640;28;20047;-86
2023/01/09 12:52:22;;;;;;;1.98;0.77;;;;;;;8.40;100.00;98847.03;6156581;28;20066;-85
2023/01/09 12:55:29;;;;;;;2.95;0.77;;;;;;;8.58;100.00;98839.28;6141882;28;20081;-86
2023/01/09 12:58:40;;;;;;;1.80;0.60;;;;;;;8.68;100.00;98849.50;6156667;28;20053;-86
2023/01/09 13:01:46;;;;;;;1.50;0.82;;;;;;;8.83;100.00;98844.59;6166147;28;20051;-86
2023/01/09 13:04:57;;;;;;;0.95;0.63;;;;;;;8.91;100.00;98856.75;6166350;28;20062;-86
2023/01/09 13:08:04;;;;;;;;;;;;;;;9.03;100.00;98846.00;6164761;28;20054;-86
2023/01/09 13:11:36;;;;;;;1.40;0.57;;;;;;;8.99;100.00;98849.88;6164979;28;19926;-86
2023/01/09 13:14:48;;;;;;;1.65;0.60;;;;;;;8.78;100.00;98854.56;6154552;28;20042;-86
2023/01/09 13:17:55;;;;;;;1.95;0.80;;;;;;;8.69;100.00;98851.09;6154203;28;20050;-86
2023/01/09 13:20:56;;;;;;;1.67;0.60;;;;;;;8.74;100.00;98863.56;6163999;28;20545;-86
2023/01/09 13:24:21;;;;;;;2.80;1.00;;;;;;;8.75;100.00;98866.00;6161299;28;20370;-86
2023/01/09 13:27:26;;;;;;;1.42;0.75;;;;;;;8.72;100.00;98856.00;6165241;28;20074;-85
2023/01/09 13:30:45;;;;;;;1.45;0.73;;;;;;;8.71;100.00;98858.72;6164527;28;20046;-86
2023/01/09 13:33:55;;;;;;;1.17;0.50;;;;;;;8.63;100.00;98856.88;6166031;28;20126;-86
2023/01/09 13:36:58;;;;;;;2.42;0.70;;;;;;;8.63;100.00;98862.84;6140402;28;20047;-85
2023/01/09 13:40:23;;;;;;;2.45;0.70;;;;;;;8.57;100.00;98860.88;6162360;28;20094;-86
2023/01/09 13:43:27;;;;;;;0.88;0.77;;;;;;;8.44;100.00;98851.88;6165235;28;20054;-86
2023/01/09 13:46:34;;;;;;;2.65;0.88;;;;;;;8.27;100.00;98862.03;6161745;28;20054;-85
2023/01/09 13:49:46;;;;;;;1.85;0.80;;;;;;;8.16;100.00;98864.81;6155045;28;20413;-85
2023/01/09 13:52:48;;;;;;;1.45;0.85;;;;;;;8.13;100.00;98870.28;6158538;28;20493;-85
2023/01/09 13:55:56;;;;;;;3.03;0.98;;;;;;;8.03;100.00;98864.38;6158367;28;20046;-85
2023/01/09 13:59:01;;;;;;;2.88;0.80;;;;;;;7.92;100.00;98857.66;6156251;28;20043;-85
2023/01/09 14:02:23;;;;;;;0.75;0.70;;;;;;;7.76;100.00;98874.56;6159598;28;20047;-85
2023/01/09 14:05:24;;;;;;;2.58;1.13;;;;;;;7.71;100.00;98881.09;6163545;28;20542;-85
2023/01/09 14:08:29;;;;;;;1.48;0.90;;;;;;;7.74;100.00;98880.81;6160576;28;20091;-85
2023/01/09 14:11:32;;;;;;;0.90;0.90;;;;;;;7.63;100.00;98883.59;6163893;28;20522;-85
2023/01/09 14:14:42;;;;;;;2.78;1.13;;;;;;;7.67;100.00;98895.22;6161472;28;20342;-85
2023/01/09 14:17:43;;;;;;;2.95;1.00;;;;;;;7.68;100.00;98902.81;6163085;28;20472;-85
2023/01/09 14:20:58;;;;;;;2.70;0.90;;;;;;;7.73;100.00;98902.38;6164127;28;20536;-85
2023/01/09 14:24:04;;;;;;;2.08;1.00;;;;;;;7.49;100.00;98903.69;6159378;28;20637;-85
2023/01/09 14:27:46;;;;;;;2.92;2.00;;;;;;;7.21;100.00;98920.06;6162341;28;20133;-85
2023/01/09 14:30:54;;;;;;;3.70;1.40;;;;;;;6.95;100.00;98910.34;6151587;28;20051;-85
2023/01/09 14:34:28;;;;;;;1.02;0.90;;;;;;;6.95;100.00;98917.25;6162642;28;20035;-85
2023/01/09 14:37:34;;;;;;;0.88;0.80;;;;;;;6.90;100.00;98922.78;6153154;28;20054;-85
2023/01/09 14:40:46;;;;;;;1.50;0.85;;;;;;;6.79;100.00;98923.75;6153467;28;20085;-85
2023/01/09 14:43:59;;;;;;;2.55;0.85;;;;;;;6.82;100.00;98938.09;6149068;28;20544;-85
2023/01/09 14:47:19;;;;;;;1.85;0.60;;;;;;;6.68;100.00;98936.75;6149141;28;20472;-85
2023/01/09 14:50:54;;;;;;;2.92;0.60;;;;;;;6.54;100.00;98940.56;6151535;28;20118;-85
2023/01/09 14:53:58;;;;;;;1.10;0.60;;;;;;;6.46;100.00;98951.50;6146561;28;20077;-84
2023/01/09 14:57:01;;;;;;;1.77;0.70;;;;;;;6.55;100.00;98944.72;6144102;28;20409;-85
2023/01/09 15:00:16;;;;;;;1.98;0.98;;;;;;;6.59;100.00;98958.94;6143706;28;20067;-85